createdAt,value
2023-01-11T00:01:09.703Z,54.60
2023-01-11T00:03:37.210Z,54.60
2023-01-11T00:06:06.257Z,54.60
2023-01-11T00:08:33.712Z,54.50
2023-01-11T00:11:02.531Z,54.40
2023-01-11T00:13:31.163Z,54.50
2023-01-11T00:16:01.593Z,54.50
2023-01-11T00:18:29.179Z,54.50
2023-01-11T00:20:56.727Z,54.60
2023-01-11T00:23:24.203Z,54.50
2023-01-11T00:25:51.610Z,54.50
2023-01-11T00:28:19.091Z,54.50
2023-01-11T00:30:49.821Z,54.50
2023-01-11T00:33:17.384Z,54.50
2023-01-11T00:35:44.993Z,54.50
2023-01-11T00:38:32.759Z,54.40
2023-01-11T00:41:20.265Z,54.50
2023-01-11T00:44:06.112Z,54.60
2023-01-11T00:46:51.964Z,54.70
2023-01-11T00:49:19.455Z,54.60
2023-01-11T00:51:46.916Z,54.70
2023-01-11T00:54:14.738Z,54.60
2023-01-11T00:56:42.378Z,54.60
2023-01-11T00:59:14.080Z,54.50
2023-01-11T01:01:42.152Z,54.50
2023-01-11T01:04:09.713Z,54.60
2023-01-11T01:06:37.362Z,54.60
2023-01-11T01:09:05.105Z,54.70
2023-01-11T01:11:32.867Z,54.70
2023-01-11T01:14:18.833Z,54.70
2023-01-11T01:16:48.000Z,54.80
2023-01-11T01:19:16.127Z,54.80
2023-01-11T01:21:43.849Z,54.80
2023-01-11T01:24:11.623Z,54.80
2023-01-11T01:26:38.961Z,55.30
2023-01-11T01:29:06.316Z,54.70
2023-01-11T01:31:33.999Z,54.80
2023-01-11T01:34:01.576Z,54.80
2023-01-11T01:36:29.051Z,54.90
2023-01-11T01:38:56.684Z,54.90
2023-01-11T01:41:25.365Z,54.80
2023-01-11T01:43:56.127Z,54.80
2023-01-11T01:46:30.886Z,54.80
2023-01-11T01:49:14.031Z,54.80
2023-01-11T01:51:43.180Z,54.80
2023-01-11T01:54:17.546Z,54.90
2023-01-11T01:56:53.822Z,55.50
2023-01-11T01:59:23.691Z,54.90
2023-01-11T02:01:52.436Z,54.90
2023-01-11T02:04:31.099Z,55.00
2023-01-11T02:07:09.649Z,55.00
2023-01-11T02:09:59.822Z,55.00
2023-01-11T02:12:32.141Z,55.00
2023-01-11T02:15:04.608Z,55.10
2023-01-11T02:17:32.200Z,55.00
2023-01-11T02:20:46.226Z,55.10
2023-01-11T02:23:52.908Z,54.90
2023-01-11T02:26:41.936Z,54.90
2023-01-11T02:29:43.962Z,54.90
2023-01-11T02:32:50.059Z,54.90
2023-01-11T02:35:52.560Z,54.90
2023-01-11T02:38:26.650Z,54.90
2023-01-11T02:41:07.312Z,54.90
2023-01-11T02:44:24.279Z,54.90
2023-01-11T02:47:04.273Z,54.90
2023-01-11T02:49:52.826Z,54.90
2023-01-11T02:52:37.320Z,55.00
2023-01-11T02:55:08.672Z,55.00
2023-01-11T02:57:39.414Z,55.00
2023-01-11T03:00:11.411Z,55.00
2023-01-11T03:03:05.485Z,55.10
2023-01-11T03:05:35.228Z,55.10
2023-01-11T03:09:03.008Z,55.20
2023-01-11T03:12:45.495Z,55.20
2023-01-11T03:15:50.322Z,55.30
2023-01-11T03:18:33.743Z,55.30
2023-01-11T03:21:37.123Z,55.40
2023-01-11T03:24:38.390Z,55.40
2023-01-11T03:27:27.089Z,55.40
2023-01-11T03:30:06.438Z,55.40
2023-01-11T03:32:55.244Z,55.40
2023-01-11T03:35:36.811Z,55.30
2023-01-11T03:38:27.916Z,55.50
2023-01-11T03:41:05.961Z,55.30
2023-01-11T03:43:37.523Z,55.30
2023-01-11T03:46:15.040Z,55.30
2023-01-11T03:49:17.371Z,55.20
2023-01-11T03:51:46.628Z,55.30
2023-01-11T03:54:23.949Z,55.20
2023-01-11T03:57:20.211Z,55.30
2023-01-11T03:59:48.791Z,55.30
2023-01-11T04:02:19.537Z,55.30
2023-01-11T04:04:47.403Z,55.30
2023-01-11T04:07:18.910Z,55.30
2023-01-11T04:09:46.880Z,55.30
2023-01-11T04:12:14.143Z,55.30
2023-01-11T04:14:41.522Z,55.30
2023-01-11T04:17:08.968Z,55.30
2023-01-11T04:19:37.067Z,55.30
2023-01-11T04:22:06.944Z,55.30
2023-01-11T04:24:34.341Z,55.30
2023-01-11T04:27:01.525Z,55.30
2023-01-11T04:29:29.022Z,55.30
2023-01-11T04:31:56.465Z,55.90
2023-01-11T04:34:24.041Z,55.40
2023-01-11T04:36:51.371Z,55.40
2023-01-11T04:39:19.059Z,55.40
2023-01-11T04:42:04.889Z,55.40
2023-01-11T04:44:32.281Z,55.40
2023-01-11T04:46:59.469Z,55.50
2023-01-11T04:49:26.752Z,55.50
2023-01-11T04:51:54.288Z,55.50
2023-01-11T04:54:21.817Z,55.50
2023-01-11T04:56:49.331Z,55.60
2023-01-11T04:59:16.992Z,55.50
2023-01-11T05:01:44.531Z,55.60
2023-01-11T05:04:13.482Z,55.70
2023-01-11T05:06:41.057Z,55.70
2023-01-11T05:09:15.432Z,55.80
2023-01-11T05:11:43.387Z,55.80
2023-01-11T05:14:11.123Z,55.80
2023-01-11T05:16:38.745Z,55.80
2023-01-11T05:19:06.641Z,55.80
2023-01-11T05:21:37.858Z,56.50
2023-01-11T05:24:07.700Z,56.00
2023-01-11T05:26:37.851Z,56.00
2023-01-11T05:29:12.446Z,56.00
2023-01-11T05:31:42.025Z,56.10
2023-01-11T05:34:12.877Z,56.10
2023-01-11T05:36:41.215Z,56.20
2023-01-11T05:39:09.307Z,56.20
2023-01-11T05:41:37.377Z,56.40
2023-01-11T05:44:24.323Z,56.50
2023-01-11T05:46:51.812Z,56.60
2023-01-11T05:49:19.263Z,56.80
2023-01-11T05:51:49.724Z,57.00
2023-01-11T05:54:17.183Z,57.10
2023-01-11T05:56:44.675Z,57.30
2023-01-11T05:59:12.581Z,57.30
2023-01-11T06:01:40.369Z,57.40
2023-01-11T06:04:08.786Z,57.50
2023-01-11T06:06:36.631Z,58.20
2023-01-11T06:09:04.288Z,57.80
2023-01-11T06:11:31.793Z,57.80
2023-01-11T06:13:59.428Z,57.90
2023-01-11T06:16:26.973Z,57.90
2023-01-11T06:18:55.228Z,58.00
2023-01-11T06:21:23.247Z,57.90
2023-01-11T06:23:51.504Z,58.00
2023-01-11T06:26:22.067Z,58.00
2023-01-11T06:28:50.608Z,58.00
2023-01-11T06:31:19.453Z,58.10
2023-01-11T06:33:49.938Z,58.00
2023-01-11T06:36:17.688Z,57.90
2023-01-11T06:38:45.650Z,57.90
2023-01-11T06:41:13.899Z,57.80
2023-01-11T06:43:42.316Z,57.80
2023-01-11T06:46:15.445Z,57.90
2023-01-11T06:48:44.429Z,58.40
2023-01-11T06:51:13.322Z,58.20
2023-01-11T06:53:42.540Z,58.00
2023-01-11T06:56:19.191Z,57.90
2023-01-11T06:58:48.613Z,57.90
2023-01-11T07:01:17.179Z,57.90
2023-01-11T07:03:50.942Z,57.90
2023-01-11T07:06:18.708Z,57.90
2023-01-11T07:08:46.197Z,57.80
2023-01-11T07:11:13.675Z,57.70
2023-01-11T07:13:41.125Z,57.70
2023-01-11T07:16:08.491Z,57.70
2023-01-11T07:18:36.108Z,57.70
2023-01-11T07:21:03.589Z,57.60
2023-01-11T07:23:31.002Z,57.60
2023-01-11T07:25:58.947Z,57.60
2023-01-11T07:28:28.624Z,57.50
2023-01-11T07:30:59.069Z,57.50
2023-01-11T07:33:27.704Z,57.50
2023-01-11T07:35:55.795Z,57.50
2023-01-11T07:38:23.602Z,57.60
2023-01-11T07:40:50.993Z,57.50
2023-01-11T07:43:20.154Z,57.50
2023-01-11T07:45:50.056Z,57.60
2023-01-11T07:48:21.565Z,57.50
2023-01-11T07:50:49.439Z,57.50
2023-01-11T07:53:19.088Z,57.50
2023-01-11T07:55:47.390Z,57.50
2023-01-11T07:58:16.104Z,57.60
2023-01-11T08:00:44.432Z,57.60
2023-01-11T08:03:12.095Z,57.60
2023-01-11T08:05:40.732Z,57.60
2023-01-11T08:08:08.982Z,57.70
2023-01-11T08:10:36.794Z,57.80
2023-01-11T08:13:23.413Z,57.70
2023-01-11T08:15:51.017Z,57.70
2023-01-11T08:18:19.855Z,57.70
2023-01-11T08:20:47.894Z,57.70
2023-01-11T08:23:15.337Z,57.70
2023-01-11T08:25:43.089Z,57.80
2023-01-11T08:28:12.344Z,57.80
2023-01-11T08:30:40.431Z,57.80
2023-01-11T08:33:07.958Z,57.80
2023-01-11T08:35:39.573Z,57.80
2023-01-11T08:38:08.440Z,57.90
2023-01-11T08:40:36.407Z,58.10
2023-01-11T08:43:03.903Z,58.30
2023-01-11T08:45:31.541Z,58.30
2023-01-11T08:48:00.630Z,58.30
2023-01-11T08:50:28.627Z,58.10
2023-01-11T08:52:56.222Z,58.10
2023-01-11T08:55:23.897Z,58.20
2023-01-11T08:57:51.581Z,58.20
2023-01-11T09:00:20.301Z,58.20
2023-01-11T09:02:48.035Z,58.20
2023-01-11T09:05:18.370Z,58.30
2023-01-11T09:07:46.964Z,58.20
2023-01-11T09:10:14.633Z,58.20
2023-01-11T09:12:42.443Z,58.30
2023-01-11T09:15:10.902Z,58.30
2023-01-11T09:17:38.657Z,58.30
2023-01-11T09:20:07.083Z,58.30
2023-01-11T09:22:34.807Z,58.30
2023-01-11T09:25:02.953Z,58.30
2023-01-11T09:27:30.434Z,58.40
2023-01-11T09:29:58.042Z,58.50
2023-01-11T09:32:25.511Z,58.50
2023-01-11T09:34:57.479Z,58.40
2023-01-11T09:37:25.165Z,58.90
2023-01-11T09:39:53.006Z,58.90
2023-01-11T09:42:39.731Z,58.20
2023-01-11T09:45:32.946Z,58.20
2023-01-11T09:48:28.760Z,58.20
2023-01-11T09:50:57.887Z,58.30
2023-01-11T09:53:34.983Z,58.20
2023-01-11T09:56:08.559Z,58.20
2023-01-11T09:59:00.508Z,58.30
2023-01-11T10:01:57.653Z,58.40
2023-01-11T10:05:11.162Z,58.50
2023-01-11T10:18:31.449Z,58.50
2023-01-11T10:18:40.560Z,58.50
2023-01-11T10:20:35.732Z,58.60
2023-01-11T10:23:09.491Z,58.70
2023-01-11T10:25:48.143Z,58.70
2023-01-11T10:28:31.409Z,58.60
2023-01-11T10:30:59.063Z,58.80
2023-01-11T10:33:38.232Z,58.80
2023-01-11T10:36:45.151Z,58.80
2023-01-11T10:39:44.476Z,58.80
2023-01-11T10:42:23.115Z,58.80
2023-01-11T10:45:19.104Z,59.00
2023-01-11T10:48:01.832Z,59.00
2023-01-11T10:51:35.950Z,59.00
2023-01-11T10:54:22.264Z,59.00
2023-01-11T10:57:37.877Z,59.00
2023-01-11T11:00:31.789Z,59.10
2023-01-11T11:03:39.714Z,59.10
2023-01-11T11:06:45.487Z,59.10
2023-01-11T11:09:27.079Z,59.10
2023-01-11T11:12:09.705Z,59.10
2023-01-11T11:14:59.503Z,59.10
2023-01-11T11:17:34.659Z,59.10
2023-01-11T11:20:22.224Z,59.00
2023-01-11T11:22:52.542Z,59.00
2023-01-11T11:25:37.567Z,59.00
2023-01-11T11:28:14.992Z,59.00
2023-01-11T11:30:46.196Z,59.10
2023-01-11T11:33:46.843Z,59.10
2023-01-11T11:36:17.664Z,59.10
2023-01-11T11:39:29.128Z,59.80
2023-01-11T11:42:16.858Z,59.20
2023-01-11T11:44:44.544Z,59.10
2023-01-11T11:47:18.164Z,59.20
2023-01-11T11:49:46.928Z,59.10
2023-01-11T11:52:17.892Z,59.20
2023-01-11T11:54:57.213Z,59.10
2023-01-11T11:57:35.383Z,59.20
2023-01-11T12:00:23.987Z,59.20
2023-01-11T12:03:04.499Z,59.10
2023-01-11T12:05:32.798Z,59.10
2023-01-11T12:08:01.144Z,59.10
2023-01-11T12:10:30.753Z,59.10
2023-01-11T12:13:03.026Z,59.20
2023-01-11T12:15:33.122Z,59.20
2023-01-11T12:18:41.466Z,59.20
2023-01-11T12:21:25.950Z,59.20
2023-01-11T12:24:13.287Z,59.20
2023-01-11T12:27:15.041Z,59.20
2023-01-11T12:30:27.639Z,59.20
2023-01-11T12:33:22.750Z,59.50
2023-01-11T12:36:08.456Z,59.50
2023-01-11T12:38:50.309Z,59.50
2023-01-11T12:41:53.417Z,59.50
2023-01-11T12:44:43.688Z,59.50
2023-01-11T12:47:55.377Z,59.50
2023-01-11T12:51:03.077Z,59.70
2023-01-11T12:54:25.779Z,59.80
2023-01-11T12:57:19.160Z,59.80
2023-01-11T13:00:13.900Z,59.90
2023-01-11T13:03:19.107Z,60.10
2023-01-11T13:06:17.848Z,60.00
2023-01-11T13:09:22.988Z,60.00
2023-01-11T13:12:14.472Z,60.10
2023-01-11T13:14:54.304Z,60.70
2023-01-11T13:17:48.007Z,60.20
2023-01-11T13:20:59.838Z,60.20
2023-01-11T13:23:52.748Z,60.10
2023-01-11T13:26:31.304Z,60.20
2023-01-11T13:29:01.555Z,60.50
2023-01-11T13:31:31.944Z,60.40
2023-01-11T13:34:12.317Z,60.40
2023-01-11T13:36:51.483Z,60.60
2023-01-11T13:39:48.393Z,60.70
2023-01-11T13:42:30.152Z,60.70
2023-01-11T13:45:13.552Z,60.70
2023-01-11T13:48:08.690Z,60.70
2023-01-11T13:50:55.283Z,60.80
2023-01-11T13:53:57.508Z,60.90
2023-01-11T13:56:34.009Z,60.90
2023-01-11T13:59:15.548Z,60.90
2023-01-11T14:02:19.305Z,61.10
2023-01-11T14:04:58.784Z,61.10
2023-01-11T14:08:06.009Z,61.20
2023-01-11T14:10:52.128Z,61.20
2023-01-11T14:13:43.801Z,61.20
2023-01-11T14:16:41.150Z,61.10
2023-01-11T14:19:28.598Z,60.90
2023-01-11T14:22:44.203Z,60.90
2023-01-11T14:25:37.119Z,60.90
2023-01-11T14:28:42.041Z,61.10
2023-01-11T14:31:43.959Z,60.90
2023-01-11T14:34:54.850Z,61.00
2023-01-11T14:37:35.919Z,61.10
2023-01-11T14:40:38.192Z,61.10
2023-01-11T14:43:49.643Z,61.10
2023-01-11T14:46:41.767Z,61.00
2023-01-11T14:49:44.977Z,61.10
2023-01-11T14:52:34.540Z,60.90
2023-01-11T14:55:21.116Z,61.10
2023-01-11T14:58:30.837Z,61.10
2023-01-11T15:00:58.341Z,61.10
2023-01-11T15:03:42.351Z,61.10
2023-01-11T15:06:17.241Z,61.10
2023-01-11T15:08:51.458Z,61.00
2023-01-11T15:11:42.108Z,61.10
2023-01-11T15:14:32.998Z,61.00
2023-01-11T15:17:21.287Z,61.10
2023-01-11T15:19:51.657Z,61.10
2023-01-11T15:22:37.761Z,61.10
2023-01-11T15:25:24.112Z,61.20
2023-01-11T15:27:53.392Z,61.20
2023-01-11T15:30:30.169Z,61.20
2023-01-11T15:33:19.730Z,61.10
2023-01-11T15:35:56.509Z,61.10
2023-01-11T15:38:52.902Z,61.10
2023-01-11T15:42:07.650Z,61.10
2023-01-11T15:45:24.364Z,61.00
2023-01-11T15:48:20.985Z,61.10
2023-01-11T15:50:54.397Z,60.90
2023-01-11T15:53:49.330Z,60.90
2023-01-11T15:57:02.193Z,60.90
2023-01-11T15:59:41.407Z,60.90
2023-01-11T16:02:37.029Z,61.60
2023-01-11T16:05:28.274Z,60.90
2023-01-11T16:08:43.259Z,60.90
2023-01-11T16:11:53.706Z,60.90
2023-01-11T16:14:41.735Z,60.90
2023-01-11T16:17:20.722Z,60.80
2023-01-11T16:19:53.245Z,60.70
2023-01-11T16:22:26.657Z,60.70
2023-01-11T16:25:01.578Z,60.70
2023-01-11T16:27:32.583Z,60.60
2023-01-11T16:30:01.087Z,60.60
2023-01-11T16:32:33.072Z,60.60
2023-01-11T16:35:02.669Z,60.60
2023-01-11T16:37:45.320Z,60.60
2023-01-11T16:40:37.786Z,60.60
2023-01-11T16:43:30.654Z,60.60
2023-01-11T16:45:58.502Z,60.60
2023-01-11T16:48:30.187Z,60.60
2023-01-11T16:51:05.989Z,60.60
2023-01-11T16:53:42.473Z,60.60
2023-01-11T16:56:21.487Z,60.60
2023-01-11T16:59:08.078Z,60.60
2023-01-11T17:01:59.990Z,60.60
2023-01-11T17:04:29.358Z,60.40
2023-01-11T17:07:31.670Z,60.60
2023-01-11T17:10:29.474Z,60.50
2023-01-11T17:13:47.731Z,60.40
2023-01-11T17:16:16.680Z,60.40
2023-01-11T17:18:44.783Z,60.30
2023-01-11T17:21:31.025Z,60.40
2023-01-11T17:24:05.305Z,60.50
2023-01-11T17:26:46.343Z,60.60
2023-01-11T17:29:38.713Z,60.60
2023-01-11T17:32:15.487Z,60.60
2023-01-11T17:34:43.943Z,60.70
2023-01-11T17:37:16.285Z,60.70
2023-01-11T17:39:50.573Z,60.60
2023-01-11T17:42:37.283Z,60.60
2023-01-11T17:45:21.177Z,60.60
2023-01-11T17:47:54.337Z,61.30
2023-01-11T17:50:30.759Z,60.60
2023-01-11T17:53:22.146Z,60.60
2023-01-11T17:56:32.524Z,60.60
2023-01-11T17:59:12.337Z,60.50
2023-01-11T18:01:45.812Z,60.50
2023-01-11T18:04:19.817Z,60.50
2023-01-11T18:06:56.079Z,60.40
2023-01-11T18:09:26.804Z,60.30
2023-01-11T18:12:04.813Z,60.40
2023-01-11T18:14:56.503Z,60.50
2023-01-11T18:17:32.866Z,60.40
2023-01-11T18:20:22.366Z,60.40
2023-01-11T18:23:20.851Z,60.30
2023-01-11T18:25:48.421Z,60.40
2023-01-11T18:28:19.033Z,60.40
2023-01-11T18:30:54.623Z,60.30
2023-01-11T18:33:28.722Z,60.30
2023-01-11T18:36:03.340Z,60.30
2023-01-11T18:38:33.484Z,60.20
2023-01-11T18:41:26.114Z,60.10
2023-01-11T18:43:54.677Z,60.00
2023-01-11T18:46:22.566Z,59.90
2023-01-11T18:48:50.402Z,59.90
2023-01-11T18:51:29.587Z,59.80
2023-01-11T18:53:57.239Z,59.80
2023-01-11T18:56:24.698Z,60.00
2023-01-11T18:58:52.066Z,60.00
2023-01-11T19:01:19.738Z,60.00
2023-01-11T19:03:47.385Z,60.10
2023-01-11T19:06:17.610Z,60.20
2023-01-11T19:08:45.149Z,60.20
2023-01-11T19:11:16.630Z,60.20
2023-01-11T19:13:47.283Z,60.10
2023-01-11T19:16:15.409Z,60.30
2023-01-11T19:18:43.306Z,60.20
2023-01-11T19:21:13.436Z,60.20
2023-01-11T19:23:42.198Z,60.20
2023-01-11T19:26:12.473Z,60.20
2023-01-11T19:28:40.011Z,60.20
2023-01-11T19:31:09.391Z,60.20
2023-01-11T19:33:36.990Z,60.10
2023-01-11T19:36:08.789Z,60.10
2023-01-11T19:38:37.391Z,60.10
2023-01-11T19:41:08.475Z,60.00
2023-01-11T19:43:36.529Z,60.10
2023-01-11T19:46:04.276Z,60.00
2023-01-11T19:48:35.496Z,60.10
2023-01-11T19:51:10.450Z,60.00
2023-01-11T19:53:38.483Z,60.10
2023-01-11T19:56:09.748Z,60.10
2023-01-11T19:58:38.487Z,60.20
2023-01-11T20:01:13.462Z,60.10
2023-01-11T20:03:41.730Z,60.20
2023-01-11T20:06:09.872Z,60.20
2023-01-11T20:08:41.348Z,60.20
2023-01-11T20:11:12.895Z,60.20
2023-01-11T20:13:41.844Z,60.20
2023-01-11T20:16:13.294Z,60.30
2023-01-11T20:18:42.615Z,61.00
2023-01-11T20:21:11.260Z,60.20
2023-01-11T20:23:38.696Z,60.10
2023-01-11T20:26:07.930Z,60.10
2023-01-11T20:28:35.378Z,60.10
2023-01-11T20:31:07.386Z,60.10
2023-01-11T20:33:35.268Z,60.10
2023-01-11T20:36:14.869Z,60.10
2023-01-11T20:38:44.169Z,60.00
2023-01-11T20:41:38.154Z,60.00
2023-01-11T20:44:07.172Z,60.10
2023-01-11T20:46:37.284Z,60.00
2023-01-11T20:49:06.768Z,59.90
2023-01-11T20:51:36.047Z,59.90
2023-01-11T20:54:07.602Z,59.90
2023-01-11T20:56:35.799Z,59.80
2023-01-11T20:59:03.456Z,59.80
2023-01-11T21:01:31.447Z,59.80
2023-01-11T21:04:05.471Z,59.70
2023-01-11T21:06:36.073Z,59.60
2023-01-11T21:09:07.239Z,59.60
2023-01-11T21:11:35.676Z,59.50
2023-01-11T21:14:04.885Z,59.50
2023-01-11T21:16:32.781Z,59.40
2023-01-11T21:19:05.023Z,59.30
2023-01-11T21:21:34.825Z,59.30
2023-01-11T21:24:05.031Z,59.30
2023-01-11T21:26:34.938Z,59.20
2023-01-11T21:29:05.361Z,59.20
2023-01-11T21:31:36.269Z,59.10
2023-01-11T21:34:04.624Z,59.10
2023-01-11T21:36:33.018Z,59.00
2023-01-11T21:39:02.971Z,59.00
2023-01-11T21:41:51.993Z,59.00
2023-01-11T21:44:21.095Z,59.00
2023-01-11T21:46:49.694Z,58.90
2023-01-11T21:49:17.674Z,59.00
2023-01-11T21:51:45.610Z,58.90
2023-01-11T21:54:15.646Z,58.90
2023-01-11T21:56:43.315Z,58.90
2023-01-11T21:59:11.302Z,58.90
2023-01-11T22:01:41.791Z,58.70
2023-01-11T22:04:14.864Z,58.70
2023-01-11T22:06:51.617Z,58.70
2023-01-11T22:09:20.243Z,58.80
2023-01-11T22:11:48.007Z,58.70
2023-01-11T22:14:18.063Z,58.70
2023-01-11T22:16:45.521Z,58.60
2023-01-11T22:19:13.721Z,58.60
2023-01-11T22:21:41.125Z,58.50
2023-01-11T22:24:14.416Z,58.50
2023-01-11T22:26:42.261Z,58.50
2023-01-11T22:29:13.115Z,58.40
2023-01-11T22:31:43.788Z,58.30
2023-01-11T22:34:12.324Z,58.30
2023-01-11T22:36:40.336Z,58.20
2023-01-11T22:39:08.265Z,58.10
2023-01-11T22:41:36.148Z,58.10
2023-01-11T22:44:04.041Z,58.10
2023-01-11T22:46:31.586Z,58.00
2023-01-11T22:48:59.282Z,58.00
2023-01-11T22:51:27.853Z,58.00
2023-01-11T22:53:56.723Z,58.00
2023-01-11T22:56:29.662Z,58.10
2023-01-11T22:58:58.265Z,58.10
2023-01-11T23:01:28.835Z,58.20
2023-01-11T23:03:57.758Z,58.20
2023-01-11T23:06:37.371Z,58.10
2023-01-11T23:09:07.843Z,58.10
2023-01-11T23:11:57.415Z,58.00
2023-01-11T23:14:30.445Z,58.00
2023-01-11T23:17:07.010Z,58.00
2023-01-11T23:19:40.642Z,57.90
2023-01-11T23:22:10.000Z,58.00
2023-01-11T23:24:38.157Z,57.90
2023-01-11T23:27:05.816Z,58.00
2023-01-11T23:29:33.384Z,57.80
2023-01-11T23:32:01.005Z,57.80
2023-01-11T23:34:28.872Z,57.80
2023-01-11T23:36:56.487Z,57.80
2023-01-11T23:39:24.051Z,57.70
2023-01-11T23:42:09.950Z,57.70
2023-01-11T23:44:37.583Z,57.70
2023-01-11T23:47:25.080Z,57.70
2023-01-11T23:49:55.952Z,57.60
2023-01-11T23:52:27.188Z,57.60
2023-01-11T23:54:55.257Z,57.60
2023-01-11T23:57:24.709Z,57.90
2023-01-11T23:59:52.564Z,57.30
